sensor_id;sensor_type;location;lat;lon;timestamp;P1;durP1;ratioP1;P2;durP2;ratioP2
68126;SDS011;54931;52.098;21.006;2023-10-08T00:01:17;14.60;;;5.90;;
68126;SDS011;54931;52.098;21.006;2023-10-08T00:03:46;21.10;;;7.00;;
68126;SDS011;54931;52.098;21.006;2023-10-08T00:06:19;13.10;;;6.30;;
68126;SDS011;54931;52.098;21.006;2023-10-08T00:08:48;17.70;;;7.30;;
68126;SDS011;54931;52.098;21.006;2023-10-08T00:11:18;18.50;;;7.20;;
68126;SDS011;54931;52.098;21.006;2023-10-08T00:13:45;14.80;;;6.70;;
68126;SDS011;54931;52.098;21.006;2023-10-08T00:16:16;17.50;;;7.00;;
68126;SDS011;54931;52.098;21.006;2023-10-08T00:18:44;23.70;;;7.90;;
68126;SDS011;54931;52.098;21.006;2023-10-08T00:21:19;20.00;;;7.10;;
68126;SDS011;54931;52.098;21.006;2023-10-08T00:23:53;20.90;;;7.60;;
68126;SDS011;54931;52.098;21.006;2023-10-08T00:26:25;17.20;;;7.00;;
68126;SDS011;54931;52.098;21.006;2023-10-08T00:28:56;15.60;;;7.00;;
68126;SDS011;54931;52.098;21.006;2023-10-08T00:31:27;14.30;;;7.20;;
68126;SDS011;54931;52.098;21.006;2023-10-08T00:33:58;16.60;;;6.70;;
68126;SDS011;54931;52.098;21.006;2023-10-08T00:36:26;14.60;;;7.00;;
68126;SDS011;54931;52.098;21.006;2023-10-08T00:38:54;16.00;;;6.90;;
68126;SDS011;54931;52.098;21.006;2023-10-08T00:41:26;14.10;;;6.60;;
68126;SDS011;54931;52.098;21.006;2023-10-08T00:43:59;14.70;;;6.20;;
68126;SDS011;54931;52.098;21.006;2023-10-08T00:46:28;14.60;;;6.00;;
68126;SDS011;54931;52.098;21.006;2023-10-08T00:49:01;12.30;;;5.80;;
68126;SDS011;54931;52.098;21.006;2023-10-08T00:51:49;12.90;;;5.80;;
68126;SDS011;54931;52.098;21.006;2023-10-08T00:57:22;11.60;;;5.50;;
68126;SDS011;54931;52.098;21.006;2023-10-08T00:59:54;13.20;;;5.80;;
68126;SDS011;54931;52.098;21.006;2023-10-08T01:02:26;13.70;;;6.30;;
68126;SDS011;54931;52.098;21.006;2023-10-08T01:04:56;12.50;;;5.30;;
68126;SDS011;54931;52.098;21.006;2023-10-08T01:07:25;14.00;;;6.00;;
68126;SDS011;54931;52.098;21.006;2023-10-08T01:09:55;14.90;;;5.30;;
68126;SDS011;54931;52.098;21.006;2023-10-08T01:12:27;12.90;;;5.50;;
68126;SDS011;54931;52.098;21.006;2023-10-08T01:15:01;13.00;;;5.40;;
68126;SDS011;54931;52.098;21.006;2023-10-08T01:17:43;12.90;;;5.10;;
68126;SDS011;54931;52.098;21.006;2023-10-08T01:20:30;16.20;;;5.70;;
68126;SDS011;54931;52.098;21.006;2023-10-08T01:23:11;16.40;;;4.40;;
68126;SDS011;54931;52.098;21.006;2023-10-08T01:25:40;10.10;;;4.60;;
68126;SDS011;54931;52.098;21.006;2023-10-08T01:28:10;11.70;;;4.90;;
68126;SDS011;54931;52.098;21.006;2023-10-08T01:30:53;13.20;;;5.00;;
68126;SDS011;54931;52.098;21.006;2023-10-08T01:33:22;10.30;;;5.10;;
68126;SDS011;54931;52.098;21.006;2023-10-08T01:35:50;8.80;;;4.30;;
68126;SDS011;54931;52.098;21.006;2023-10-08T01:38:17;13.90;;;5.20;;
68126;SDS011;54931;52.098;21.006;2023-10-08T01:40:50;11.00;;;4.50;;
68126;SDS011;54931;52.098;21.006;2023-10-08T01:43:19;12.80;;;4.30;;
68126;SDS011;54931;52.098;21.006;2023-10-08T01:45:48;11.90;;;4.50;;
68126;SDS011;54931;52.098;21.006;2023-10-08T01:48:18;10.50;;;4.80;;
68126;SDS011;54931;52.098;21.006;2023-10-08T01:50:47;10.50;;;5.00;;
68126;SDS011;54931;52.098;21.006;2023-10-08T01:53:15;15.50;;;5.10;;
68126;SDS011;54931;52.098;21.006;2023-10-08T01:55:43;11.50;;;4.90;;
68126;SDS011;54931;52.098;21.006;2023-10-08T01:58:20;9.70;;;4.50;;
68126;SDS011;54931;52.098;21.006;2023-10-08T02:00:49;11.90;;;4.40;;
68126;SDS011;54931;52.098;21.006;2023-10-08T02:03:19;11.30;;;4.80;;
68126;SDS011;54931;52.098;21.006;2023-10-08T02:05:46;12.80;;;4.80;;
68126;SDS011;54931;52.098;21.006;2023-10-08T02:08:15;13.50;;;4.80;;
68126;SDS011;54931;52.098;21.006;2023-10-08T02:10:44;12.80;;;5.20;;
68126;SDS011;54931;52.098;21.006;2023-10-08T02:13:14;11.40;;;5.00;;
68126;SDS011;54931;52.098;21.006;2023-10-08T02:15:45;11.20;;;5.00;;
68126;SDS011;54931;52.098;21.006;2023-10-08T02:18:20;17.80;;;5.80;;
68126;SDS011;54931;52.098;21.006;2023-10-08T02:20:50;13.20;;;5.70;;
68126;SDS011;54931;52.098;21.006;2023-10-08T02:23:18;15.70;;;5.20;;
68126;SDS011;54931;52.098;21.006;2023-10-08T02:25:46;14.10;;;5.30;;
68126;SDS011;54931;52.098;21.006;2023-10-08T02:28:15;15.00;;;5.20;;
68126;SDS011;54931;52.098;21.006;2023-10-08T02:30:43;21.20;;;6.80;;
68126;SDS011;54931;52.098;21.006;2023-10-08T02:33:11;15.20;;;6.20;;
68126;SDS011;54931;52.098;21.006;2023-10-08T02:35:45;14.10;;;6.30;;
68126;SDS011;54931;52.098;21.006;2023-10-08T02:38:16;15.80;;;6.70;;
68126;SDS011;54931;52.098;21.006;2023-10-08T02:40:45;16.00;;;6.80;;
68126;SDS011;54931;52.098;21.006;2023-10-08T02:43:15;13.60;;;6.70;;
68126;SDS011;54931;52.098;21.006;2023-10-08T02:45:44;19.60;;;7.00;;
68126;SDS011;54931;52.098;21.006;2023-10-08T02:48:16;20.20;;;6.90;;
68126;SDS011;54931;52.098;21.006;2023-10-08T02:50:45;17.50;;;6.70;;
68126;SDS011;54931;52.098;21.006;2023-10-08T02:53:14;16.00;;;7.20;;
68126;SDS011;54931;52.098;21.006;2023-10-08T02:55:50;16.80;;;6.70;;
68126;SDS011;54931;52.098;21.006;2023-10-08T02:58:18;14.30;;;6.60;;
68126;SDS011;54931;52.098;21.006;2023-10-08T03:00:49;18.20;;;7.10;;
68126;SDS011;54931;52.098;21.006;2023-10-08T03:03:17;20.20;;;7.30;;
68126;SDS011;54931;52.098;21.006;2023-10-08T03:05:47;15.00;;;6.30;;
68126;SDS011;54931;52.098;21.006;2023-10-08T03:08:24;16.40;;;7.20;;
68126;SDS011;54931;52.098;21.006;2023-10-08T03:10:52;20.60;;;7.00;;
68126;SDS011;54931;52.098;21.006;2023-10-08T03:13:24;14.10;;;6.40;;
68126;SDS011;54931;52.098;21.006;2023-10-08T03:15:53;18.70;;;6.60;;
68126;SDS011;54931;52.098;21.006;2023-10-08T03:18:30;16.30;;;6.20;;
68126;SDS011;54931;52.098;21.006;2023-10-08T03:21:08;18.40;;;6.70;;
68126;SDS011;54931;52.098;21.006;2023-10-08T03:23:49;19.10;;;6.50;;
68126;SDS011;54931;52.098;21.006;2023-10-08T03:26:24;15.80;;;6.80;;
68126;SDS011;54931;52.098;21.006;2023-10-08T03:31:34;20.50;;;7.10;;
68126;SDS011;54931;52.098;21.006;2023-10-08T03:34:31;20.50;;;7.20;;
68126;SDS011;54931;52.098;21.006;2023-10-08T03:37:01;18.60;;;7.70;;
68126;SDS011;54931;52.098;21.006;2023-10-08T03:39:34;18.20;;;7.40;;
68126;SDS011;54931;52.098;21.006;2023-10-08T03:42:31;17.80;;;8.00;;
68126;SDS011;54931;52.098;21.006;2023-10-08T03:45:03;19.00;;;7.90;;
68126;SDS011;54931;52.098;21.006;2023-10-08T03:47:39;16.40;;;8.20;;
68126;SDS011;54931;52.098;21.006;2023-10-08T03:50:08;18.10;;;8.70;;
68126;SDS011;54931;52.098;21.006;2023-10-08T03:52:37;18.90;;;6.50;;
68126;SDS011;54931;52.098;21.006;2023-10-08T03:55:06;16.90;;;7.20;;
68126;SDS011;54931;52.098;21.006;2023-10-08T03:57:46;17.60;;;7.90;;
68126;SDS011;54931;52.098;21.006;2023-10-08T04:00:16;17.80;;;7.30;;
68126;SDS011;54931;52.098;21.006;2023-10-08T04:02:56;14.50;;;6.80;;
68126;SDS011;54931;52.098;21.006;2023-10-08T04:05:28;23.30;;;7.50;;
68126;SDS011;54931;52.098;21.006;2023-10-08T04:08:10;19.20;;;7.60;;
68126;SDS011;54931;52.098;21.006;2023-10-08T04:10:44;18.40;;;6.40;;
68126;SDS011;54931;52.098;21.006;2023-10-08T04:13:12;20.20;;;6.80;;
68126;SDS011;54931;52.098;21.006;2023-10-08T04:15:43;19.20;;;6.90;;
68126;SDS011;54931;52.098;21.006;2023-10-08T04:18:11;17.60;;;6.30;;
68126;SDS011;54931;52.098;21.006;2023-10-08T04:20:40;17.70;;;6.00;;
68126;SDS011;54931;52.098;21.006;2023-10-08T04:25:57;15.60;;;5.10;;
68126;SDS011;54931;52.098;21.006;2023-10-08T04:28:24;16.60;;;5.10;;
68126;SDS011;54931;52.098;21.006;2023-10-08T04:30:55;14.20;;;5.00;;
68126;SDS011;54931;52.098;21.006;2023-10-08T04:33:29;11.30;;;4.40;;
68126;SDS011;54931;52.098;21.006;2023-10-08T04:36:00;11.00;;;3.90;;
68126;SDS011;54931;52.098;21.006;2023-10-08T04:38:30;8.40;;;3.40;;
68126;SDS011;54931;52.098;21.006;2023-10-08T04:41:03;9.40;;;3.00;;
68126;SDS011;54931;52.098;21.006;2023-10-08T04:43:35;6.20;;;3.00;;
68126;SDS011;54931;52.098;21.006;2023-10-08T04:46:10;5.00;;;2.20;;
68126;SDS011;54931;52.098;21.006;2023-10-08T04:48:49;3.70;;;2.20;;
68126;SDS011;54931;52.098;21.006;2023-10-08T04:51:19;5.00;;;2.10;;
68126;SDS011;54931;52.098;21.006;2023-10-08T04:53:50;6.10;;;1.90;;
68126;SDS011;54931;52.098;21.006;2023-10-08T04:56:17;6.30;;;2.00;;
68126;SDS011;54931;52.098;21.006;2023-10-08T04:58:46;4.20;;;1.40;;
68126;SDS011;54931;52.098;21.006;2023-10-08T05:01:18;7.70;;;2.10;;
68126;SDS011;54931;52.098;21.006;2023-10-08T05:03:48;4.80;;;1.70;;
68126;SDS011;54931;52.098;21.006;2023-10-08T05:06:35;3.90;;;1.40;;
68126;SDS011;54931;52.098;21.006;2023-10-08T05:09:11;5.90;;;1.70;;
68126;SDS011;54931;52.098;21.006;2023-10-08T05:11:46;2.90;;;1.70;;
68126;SDS011;54931;52.098;21.006;2023-10-08T05:14:20;3.50;;;1.30;;
68126;SDS011;54931;52.098;21.006;2023-10-08T05:16:56;2.30;;;1.20;;
68126;SDS011;54931;52.098;21.006;2023-10-08T05:19:44;4.60;;;1.50;;
68126;SDS011;54931;52.098;21.006;2023-10-08T05:22:43;4.00;;;1.20;;
68126;SDS011;54931;52.098;21.006;2023-10-08T05:25:11;6.50;;;1.50;;
68126;SDS011;54931;52.098;21.006;2023-10-08T05:27:43;3.10;;;1.50;;
68126;SDS011;54931;52.098;21.006;2023-10-08T05:33:05;3.00;;;1.10;;
68126;SDS011;54931;52.098;21.006;2023-10-08T05:35:36;3.60;;;1.70;;
68126;SDS011;54931;52.098;21.006;2023-10-08T05:40:58;2.90;;;1.40;;
68126;SDS011;54931;52.098;21.006;2023-10-08T05:43:32;2.60;;;1.10;;
68126;SDS011;54931;52.098;21.006;2023-10-08T05:46:21;3.90;;;1.30;;
68126;SDS011;54931;52.098;21.006;2023-10-08T05:48:59;2.30;;;1.30;;
68126;SDS011;54931;52.098;21.006;2023-10-08T05:51:37;3.00;;;1.10;;
68126;SDS011;54931;52.098;21.006;2023-10-08T05:54:20;2.40;;;1.10;;
68126;SDS011;54931;52.098;21.006;2023-10-08T05:57:12;2.30;;;1.10;;
68126;SDS011;54931;52.098;21.006;2023-10-08T05:59:46;3.40;;;1.20;;
68126;SDS011;54931;52.098;21.006;2023-10-08T06:02:27;1.50;;;1.00;;
68126;SDS011;54931;52.098;21.006;2023-10-08T06:05:08;3.40;;;1.40;;
68126;SDS011;54931;52.098;21.006;2023-10-08T06:10:18;4.30;;;1.20;;
68126;SDS011;54931;52.098;21.006;2023-10-08T06:13:04;3.60;;;1.70;;
68126;SDS011;54931;52.098;21.006;2023-10-08T06:15:57;3.30;;;1.30;;
68126;SDS011;54931;52.098;21.006;2023-10-08T06:18:27;3.20;;;1.10;;
68126;SDS011;54931;52.098;21.006;2023-10-08T06:20:58;4.70;;;1.40;;
68126;SDS011;54931;52.098;21.006;2023-10-08T06:23:29;4.80;;;1.30;;
68126;SDS011;54931;52.098;21.006;2023-10-08T06:25:59;2.20;;;1.10;;
68126;SDS011;54931;52.098;21.006;2023-10-08T06:28:33;3.90;;;1.20;;
68126;SDS011;54931;52.098;21.006;2023-10-08T06:31:05;4.50;;;1.40;;
68126;SDS011;54931;52.098;21.006;2023-10-08T06:33:41;3.50;;;1.20;;
68126;SDS011;54931;52.098;21.006;2023-10-08T06:36:10;2.30;;;1.20;;
68126;SDS011;54931;52.098;21.006;2023-10-08T06:38:43;3.80;;;1.20;;
68126;SDS011;54931;52.098;21.006;2023-10-08T06:41:16;3.50;;;1.20;;
68126;SDS011;54931;52.098;21.006;2023-10-08T06:43:46;4.20;;;1.10;;
68126;SDS011;54931;52.098;21.006;2023-10-08T06:46:30;2.00;;;1.10;;
68126;SDS011;54931;52.098;21.006;2023-10-08T06:49:01;3.10;;;1.10;;
68126;SDS011;54931;52.098;21.006;2023-10-08T06:51:31;4.70;;;1.10;;
68126;SDS011;54931;52.098;21.006;2023-10-08T06:54:00;3.80;;;1.00;;
68126;SDS011;54931;52.098;21.006;2023-10-08T06:56:30;2.30;;;1.00;;
68126;SDS011;54931;52.098;21.006;2023-10-08T06:59:01;2.50;;;0.90;;
68126;SDS011;54931;52.098;21.006;2023-10-08T07:01:29;3.10;;;0.90;;
68126;SDS011;54931;52.098;21.006;2023-10-08T07:04:06;3.10;;;1.00;;
68126;SDS011;54931;52.098;21.006;2023-10-08T07:06:43;2.80;;;0.90;;
68126;SDS011;54931;52.098;21.006;2023-10-08T07:09:13;2.30;;;0.90;;
68126;SDS011;54931;52.098;21.006;2023-10-08T07:12:10;2.90;;;0.90;;
68126;SDS011;54931;52.098;21.006;2023-10-08T07:14:41;2.10;;;0.80;;
68126;SDS011;54931;52.098;21.006;2023-10-08T07:17:09;3.30;;;0.90;;
68126;SDS011;54931;52.098;21.006;2023-10-08T07:19:39;2.60;;;0.90;;
68126;SDS011;54931;52.098;21.006;2023-10-08T07:22:09;1.60;;;0.80;;
68126;SDS011;54931;52.098;21.006;2023-10-08T07:24:49;2.30;;;1.00;;
68126;SDS011;54931;52.098;21.006;2023-10-08T07:27:18;1.90;;;0.90;;
68126;SDS011;54931;52.098;21.006;2023-10-08T07:29:57;4.00;;;1.00;;
68126;SDS011;54931;52.098;21.006;2023-10-08T07:32:28;5.50;;;1.00;;
68126;SDS011;54931;52.098;21.006;2023-10-08T07:34:57;2.30;;;1.00;;
68126;SDS011;54931;52.098;21.006;2023-10-08T07:37:41;2.30;;;0.80;;
68126;SDS011;54931;52.098;21.006;2023-10-08T07:40:10;3.60;;;0.90;;
68126;SDS011;54931;52.098;21.006;2023-10-08T07:42:40;2.90;;;1.10;;
68126;SDS011;54931;52.098;21.006;2023-10-08T07:45:09;2.00;;;1.00;;
68126;SDS011;54931;52.098;21.006;2023-10-08T07:47:37;1.70;;;0.90;;
68126;SDS011;54931;52.098;21.006;2023-10-08T07:50:06;1.80;;;0.80;;
68126;SDS011;54931;52.098;21.006;2023-10-08T07:52:39;2.50;;;0.90;;
68126;SDS011;54931;52.098;21.006;2023-10-08T07:55:11;5.70;;;1.00;;
68126;SDS011;54931;52.098;21.006;2023-10-08T07:57:44;1.60;;;1.00;;
68126;SDS011;54931;52.098;21.006;2023-10-08T08:00:13;2.00;;;0.90;;
68126;SDS011;54931;52.098;21.006;2023-10-08T08:02:50;1.70;;;0.80;;
68126;SDS011;54931;52.098;21.006;2023-10-08T08:05:19;2.70;;;1.10;;
68126;SDS011;54931;52.098;21.006;2023-10-08T08:07:47;2.70;;;1.00;;
68126;SDS011;54931;52.098;21.006;2023-10-08T08:10:20;3.40;;;0.90;;
68126;SDS011;54931;52.098;21.006;2023-10-08T08:12:50;2.60;;;1.20;;
68126;SDS011;54931;52.098;21.006;2023-10-08T08:15:23;1.60;;;0.90;;
68126;SDS011;54931;52.098;21.006;2023-10-08T08:17:54;3.60;;;1.10;;
68126;SDS011;54931;52.098;21.006;2023-10-08T08:20:22;2.60;;;0.90;;
68126;SDS011;54931;52.098;21.006;2023-10-08T08:23:02;1.90;;;0.90;;
68126;SDS011;54931;52.098;21.006;2023-10-08T08:25:38;2.70;;;0.90;;
68126;SDS011;54931;52.098;21.006;2023-10-08T08:28:13;2.30;;;1.20;;
68126;SDS011;54931;52.098;21.006;2023-10-08T08:30:45;2.30;;;0.90;;
68126;SDS011;54931;52.098;21.006;2023-10-08T08:33:14;2.90;;;1.00;;
68126;SDS011;54931;52.098;21.006;2023-10-08T08:36:01;1.40;;;0.80;;
68126;SDS011;54931;52.098;21.006;2023-10-08T08:38:33;2.00;;;0.90;;
68126;SDS011;54931;52.098;21.006;2023-10-08T08:41:03;1.50;;;0.90;;
68126;SDS011;54931;52.098;21.006;2023-10-08T08:43:36;1.50;;;0.80;;
68126;SDS011;54931;52.098;21.006;2023-10-08T08:46:04;2.40;;;0.90;;
68126;SDS011;54931;52.098;21.006;2023-10-08T08:48:43;2.20;;;1.00;;
68126;SDS011;54931;52.098;21.006;2023-10-08T08:51:15;2.50;;;0.90;;
68126;SDS011;54931;52.098;21.006;2023-10-08T08:53:42;2.90;;;0.90;;
68126;SDS011;54931;52.098;21.006;2023-10-08T08:56:12;2.80;;;0.90;;
68126;SDS011;54931;52.098;21.006;2023-10-08T08:58:40;2.70;;;1.00;;
68126;SDS011;54931;52.098;21.006;2023-10-08T09:01:12;1.50;;;0.80;;
68126;SDS011;54931;52.098;21.006;2023-10-08T09:03:41;1.60;;;0.70;;
68126;SDS011;54931;52.098;21.006;2023-10-08T09:06:09;4.00;;;0.80;;
68126;SDS011;54931;52.098;21.006;2023-10-08T09:08:38;1.50;;;0.80;;
68126;SDS011;54931;52.098;21.006;2023-10-08T09:11:14;3.40;;;1.00;;
68126;SDS011;54931;52.098;21.006;2023-10-08T09:13:43;4.00;;;0.90;;
68126;SDS011;54931;52.098;21.006;2023-10-08T09:16:14;2.40;;;0.80;;
68126;SDS011;54931;52.098;21.006;2023-10-08T09:18:44;1.70;;;0.80;;
68126;SDS011;54931;52.098;21.006;2023-10-08T09:21:19;2.70;;;1.10;;
68126;SDS011;54931;52.098;21.006;2023-10-08T09:23:50;4.60;;;1.50;;
68126;SDS011;54931;52.098;21.006;2023-10-08T09:26:18;3.30;;;0.90;;
68126;SDS011;54931;52.098;21.006;2023-10-08T09:28:52;3.10;;;0.80;;
68126;SDS011;54931;52.098;21.006;2023-10-08T09:31:23;2.30;;;0.80;;
68126;SDS011;54931;52.098;21.006;2023-10-08T09:33:54;0.90;;;0.60;;
68126;SDS011;54931;52.098;21.006;2023-10-08T09:36:23;1.70;;;0.70;;
68126;SDS011;54931;52.098;21.006;2023-10-08T09:39:02;2.60;;;0.90;;
68126;SDS011;54931;52.098;21.006;2023-10-08T09:41:33;1.50;;;0.60;;
68126;SDS011;54931;52.098;21.006;2023-10-08T09:44:04;1.80;;;0.70;;
68126;SDS011;54931;52.098;21.006;2023-10-08T09:46:34;1.80;;;0.70;;
68126;SDS011;54931;52.098;21.006;2023-10-08T09:49:06;1.80;;;0.80;;
68126;SDS011;54931;52.098;21.006;2023-10-08T09:51:37;3.60;;;0.70;;
68126;SDS011;54931;52.098;21.006;2023-10-08T09:54:13;3.10;;;0.80;;
68126;SDS011;54931;52.098;21.006;2023-10-08T09:56:48;2.70;;;0.80;;
68126;SDS011;54931;52.098;21.006;2023-10-08T09:59:16;2.00;;;1.00;;
68126;SDS011;54931;52.098;21.006;2023-10-08T10:01:47;2.10;;;0.80;;
68126;SDS011;54931;52.098;21.006;2023-10-08T10:04:23;2.90;;;0.80;;
68126;SDS011;54931;52.098;21.006;2023-10-08T10:06:52;1.50;;;0.70;;
68126;SDS011;54931;52.098;21.006;2023-10-08T10:09:20;2.10;;;0.80;;
68126;SDS011;54931;52.098;21.006;2023-10-08T10:11:54;1.10;;;0.70;;
68126;SDS011;54931;52.098;21.006;2023-10-08T10:14:23;3.00;;;0.80;;
68126;SDS011;54931;52.098;21.006;2023-10-08T10:17:13;2.30;;;0.90;;
68126;SDS011;54931;52.098;21.006;2023-10-08T10:19:55;1.30;;;0.70;;
68126;SDS011;54931;52.098;21.006;2023-10-08T10:22:29;2.70;;;0.90;;
68126;SDS011;54931;52.098;21.006;2023-10-08T10:24:58;4.10;;;0.80;;
68126;SDS011;54931;52.098;21.006;2023-10-08T10:27:31;2.10;;;0.90;;
68126;SDS011;54931;52.098;21.006;2023-10-08T10:30:03;2.60;;;0.80;;
68126;SDS011;54931;52.098;21.006;2023-10-08T10:32:46;1.80;;;0.90;;
68126;SDS011;54931;52.098;21.006;2023-10-08T10:35:17;4.40;;;0.80;;
68126;SDS011;54931;52.098;21.006;2023-10-08T10:37:47;3.00;;;0.80;;
68126;SDS011;54931;52.098;21.006;2023-10-08T10:40:23;2.20;;;0.90;;
68126;SDS011;54931;52.098;21.006;2023-10-08T10:43:08;1.30;;;0.70;;
68126;SDS011;54931;52.098;21.006;2023-10-08T10:45:42;3.70;;;0.80;;
68126;SDS011;54931;52.098;21.006;2023-10-08T10:48:11;1.60;;;0.90;;
68126;SDS011;54931;52.098;21.006;2023-10-08T10:50:49;1.90;;;0.90;;
68126;SDS011;54931;52.098;21.006;2023-10-08T10:53:39;1.20;;;0.70;;
68126;SDS011;54931;52.098;21.006;2023-10-08T10:56:25;1.50;;;0.80;;
68126;SDS011;54931;52.098;21.006;2023-10-08T10:59:00;2.20;;;0.90;;
68126;SDS011;54931;52.098;21.006;2023-10-08T11:01:49;4.00;;;0.80;;
68126;SDS011;54931;52.098;21.006;2023-10-08T11:06:56;2.30;;;0.80;;
68126;SDS011;54931;52.098;21.006;2023-10-08T11:09:26;1.70;;;0.90;;
68126;SDS011;54931;52.098;21.006;2023-10-08T11:12:08;1.70;;;0.70;;
68126;SDS011;54931;52.098;21.006;2023-10-08T11:14:39;2.90;;;0.90;;
68126;SDS011;54931;52.098;21.006;2023-10-08T11:17:12;3.90;;;2.00;;
68126;SDS011;54931;52.098;21.006;2023-10-08T11:19:43;2.70;;;0.90;;
68126;SDS011;54931;52.098;21.006;2023-10-08T11:22:14;2.20;;;0.90;;
68126;SDS011;54931;52.098;21.006;2023-10-08T11:24:46;1.50;;;0.90;;
68126;SDS011;54931;52.098;21.006;2023-10-08T11:27:21;3.30;;;1.10;;
68126;SDS011;54931;52.098;21.006;2023-10-08T11:30:06;1.50;;;0.70;;
68126;SDS011;54931;52.098;21.006;2023-10-08T11:32:38;1.40;;;0.70;;
68126;SDS011;54931;52.098;21.006;2023-10-08T11:35:14;1.70;;;1.00;;
68126;SDS011;54931;52.098;21.006;2023-10-08T11:37:47;3.00;;;0.80;;
68126;SDS011;54931;52.098;21.006;2023-10-08T11:40:26;2.40;;;0.90;;
68126;SDS011;54931;52.098;21.006;2023-10-08T11:43:14;2.80;;;0.70;;
68126;SDS011;54931;52.098;21.006;2023-10-08T11:45:46;1.80;;;0.80;;
68126;SDS011;54931;52.098;21.006;2023-10-08T11:48:16;0.90;;;0.60;;
68126;SDS011;54931;52.098;21.006;2023-10-08T11:50:49;1.60;;;0.90;;
68126;SDS011;54931;52.098;21.006;2023-10-08T11:53:18;2.30;;;0.80;;
68126;SDS011;54931;52.098;21.006;2023-10-08T11:55:48;2.90;;;0.80;;
68126;SDS011;54931;52.098;21.006;2023-10-08T11:58:16;1.70;;;0.90;;
68126;SDS011;54931;52.098;21.006;2023-10-08T12:00:47;1.70;;;0.80;;
68126;SDS011;54931;52.098;21.006;2023-10-08T12:03:19;1.80;;;0.80;;
68126;SDS011;54931;52.098;21.006;2023-10-08T12:05:48;4.30;;;0.80;;
68126;SDS011;54931;52.098;21.006;2023-10-08T12:08:18;3.00;;;0.70;;
68126;SDS011;54931;52.098;21.006;2023-10-08T12:10:49;2.10;;;0.70;;
68126;SDS011;54931;52.098;21.006;2023-10-08T12:13:21;3.30;;;0.80;;
68126;SDS011;54931;52.098;21.006;2023-10-08T12:15:55;2.10;;;0.70;;
68126;SDS011;54931;52.098;21.006;2023-10-08T12:18:39;2.20;;;0.90;;
68126;SDS011;54931;52.098;21.006;2023-10-08T12:21:08;3.80;;;0.70;;
68126;SDS011;54931;52.098;21.006;2023-10-08T12:23:42;1.30;;;0.80;;
68126;SDS011;54931;52.098;21.006;2023-10-08T12:26:10;2.50;;;0.90;;
68126;SDS011;54931;52.098;21.006;2023-10-08T12:28:42;2.40;;;0.90;;
68126;SDS011;54931;52.098;21.006;2023-10-08T12:31:17;2.20;;;0.70;;
68126;SDS011;54931;52.098;21.006;2023-10-08T12:33:51;1.70;;;0.80;;
68126;SDS011;54931;52.098;21.006;2023-10-08T12:36:21;2.10;;;1.20;;
68126;SDS011;54931;52.098;21.006;2023-10-08T12:38:53;2.10;;;0.90;;
68126;SDS011;54931;52.098;21.006;2023-10-08T12:41:25;2.50;;;1.00;;
68126;SDS011;54931;52.098;21.006;2023-10-08T12:43:58;4.00;;;1.70;;
68126;SDS011;54931;52.098;21.006;2023-10-08T12:46:26;8.30;;;2.50;;
68126;SDS011;54931;52.098;21.006;2023-10-08T12:48:58;3.30;;;1.30;;
68126;SDS011;54931;52.098;21.006;2023-10-08T12:51:29;1.90;;;0.90;;
68126;SDS011;54931;52.098;21.006;2023-10-08T12:54:02;4.70;;;1.70;;
68126;SDS011;54931;52.098;21.006;2023-10-08T12:56:34;4.90;;;1.20;;
68126;SDS011;54931;52.098;21.006;2023-10-08T12:59:05;2.40;;;1.20;;
68126;SDS011;54931;52.098;21.006;2023-10-08T13:01:35;1.90;;;1.00;;
68126;SDS011;54931;52.098;21.006;2023-10-08T13:04:08;1.80;;;0.80;;
68126;SDS011;54931;52.098;21.006;2023-10-08T13:06:44;2.00;;;0.70;;
68126;SDS011;54931;52.098;21.006;2023-10-08T13:09:12;2.00;;;0.80;;
68126;SDS011;54931;52.098;21.006;2023-10-08T13:11:40;1.90;;;0.70;;
68126;SDS011;54931;52.098;21.006;2023-10-08T13:14:09;3.50;;;1.00;;
68126;SDS011;54931;52.098;21.006;2023-10-08T13:16:39;7.20;;;1.50;;
68126;SDS011;54931;52.098;21.006;2023-10-08T13:19:07;4.00;;;1.10;;
68126;SDS011;54931;52.098;21.006;2023-10-08T13:21:36;3.20;;;1.00;;
68126;SDS011;54931;52.098;21.006;2023-10-08T13:24:07;3.80;;;1.10;;
68126;SDS011;54931;52.098;21.006;2023-10-08T13:26:36;3.60;;;1.10;;
68126;SDS011;54931;52.098;21.006;2023-10-08T13:29:05;3.20;;;0.90;;
68126;SDS011;54931;52.098;21.006;2023-10-08T13:31:33;2.20;;;0.80;;
68126;SDS011;54931;52.098;21.006;2023-10-08T13:34:03;3.00;;;0.90;;
68126;SDS011;54931;52.098;21.006;2023-10-08T13:36:36;2.30;;;0.90;;
68126;SDS011;54931;52.098;21.006;2023-10-08T13:39:07;3.60;;;1.00;;
68126;SDS011;54931;52.098;21.006;2023-10-08T13:41:37;1.80;;;0.90;;
68126;SDS011;54931;52.098;21.006;2023-10-08T13:44:09;2.50;;;1.00;;
68126;SDS011;54931;52.098;21.006;2023-10-08T13:46:37;3.40;;;1.00;;
68126;SDS011;54931;52.098;21.006;2023-10-08T13:49:08;6.50;;;4.10;;
68126;SDS011;54931;52.098;21.006;2023-10-08T13:51:37;2.70;;;0.90;;
68126;SDS011;54931;52.098;21.006;2023-10-08T13:54:06;1.70;;;1.00;;
68126;SDS011;54931;52.098;21.006;2023-10-08T13:56:34;3.10;;;1.30;;
68126;SDS011;54931;52.098;21.006;2023-10-08T13:59:05;4.00;;;0.90;;
68126;SDS011;54931;52.098;21.006;2023-10-08T14:01:44;2.50;;;1.10;;
68126;SDS011;54931;52.098;21.006;2023-10-08T14:04:19;2.00;;;1.00;;
68126;SDS011;54931;52.098;21.006;2023-10-08T14:06:47;4.50;;;1.00;;
68126;SDS011;54931;52.098;21.006;2023-10-08T14:09:19;3.20;;;0.90;;
68126;SDS011;54931;52.098;21.006;2023-10-08T14:11:58;4.30;;;0.90;;
68126;SDS011;54931;52.098;21.006;2023-10-08T14:14:27;5.70;;;1.40;;
68126;SDS011;54931;52.098;21.006;2023-10-08T14:16:58;6.30;;;1.80;;
68126;SDS011;54931;52.098;21.006;2023-10-08T14:19:37;3.30;;;1.10;;
68126;SDS011;54931;52.098;21.006;2023-10-08T14:22:14;3.50;;;1.10;;
68126;SDS011;54931;52.098;21.006;2023-10-08T14:24:42;3.20;;;1.10;;
68126;SDS011;54931;52.098;21.006;2023-10-08T14:27:12;2.80;;;1.40;;
68126;SDS011;54931;52.098;21.006;2023-10-08T14:29:42;6.80;;;1.30;;
68126;SDS011;54931;52.098;21.006;2023-10-08T14:32:17;2.50;;;1.00;;
68126;SDS011;54931;52.098;21.006;2023-10-08T14:34:47;1.60;;;0.90;;
68126;SDS011;54931;52.098;21.006;2023-10-08T14:37:15;2.00;;;0.90;;
68126;SDS011;54931;52.098;21.006;2023-10-08T14:40:02;4.10;;;1.00;;
68126;SDS011;54931;52.098;21.006;2023-10-08T14:42:49;2.50;;;1.00;;
68126;SDS011;54931;52.098;21.006;2023-10-08T14:45:24;3.70;;;0.90;;
68126;SDS011;54931;52.098;21.006;2023-10-08T14:48:00;5.10;;;1.50;;
68126;SDS011;54931;52.098;21.006;2023-10-08T14:50:28;2.60;;;1.10;;
68126;SDS011;54931;52.098;21.006;2023-10-08T14:53:00;3.30;;;1.20;;
68126;SDS011;54931;52.098;21.006;2023-10-08T14:55:28;3.80;;;1.00;;
68126;SDS011;54931;52.098;21.006;2023-10-08T14:57:57;3.50;;;1.20;;
68126;SDS011;54931;52.098;21.006;2023-10-08T15:00:25;6.40;;;3.70;;
68126;SDS011;54931;52.098;21.006;2023-10-08T15:02:54;3.40;;;1.70;;
68126;SDS011;54931;52.098;21.006;2023-10-08T15:05:23;5.80;;;1.60;;
68126;SDS011;54931;52.098;21.006;2023-10-08T15:07:51;2.90;;;1.50;;
68126;SDS011;54931;52.098;21.006;2023-10-08T15:10:20;4.10;;;1.60;;
68126;SDS011;54931;52.098;21.006;2023-10-08T15:12:52;3.50;;;1.20;;
68126;SDS011;54931;52.098;21.006;2023-10-08T15:15:20;1.90;;;1.10;;
68126;SDS011;54931;52.098;21.006;2023-10-08T15:17:52;3.60;;;1.10;;
68126;SDS011;54931;52.098;21.006;2023-10-08T15:20:21;4.10;;;1.70;;
68126;SDS011;54931;52.098;21.006;2023-10-08T15:22:51;3.50;;;1.70;;